sensor_id;sensor_type;location;lat;lon;timestamp;temperature;humidity
7562;DHT22;3822;48.784;9.174;2023-06-04T00:02:12;21.80;48.30
7562;DHT22;3822;48.784;9.174;2023-06-04T00:04:38;21.80;48.40
7562;DHT22;3822;48.784;9.174;2023-06-04T00:07:05;21.70;48.40
7562;DHT22;3822;48.784;9.174;2023-06-04T00:09:34;21.70;48.50
7562;DHT22;3822;48.784;9.174;2023-06-04T00:12:01;21.70;48.40
7562;DHT22;3822;48.784;9.174;2023-06-04T00:14:27;21.60;48.40
7562;DHT22;3822;48.784;9.174;2023-06-04T00:16:54;21.60;48.40
7562;DHT22;3822;48.784;9.174;2023-06-04T00:19:23;21.60;48.50
7562;DHT22;3822;48.784;9.174;2023-06-04T00:21:52;21.60;48.60
7562;DHT22;3822;48.784;9.174;2023-06-04T00:24:25;21.50;48.50
7562;DHT22;3822;48.784;9.174;2023-06-04T00:26:58;21.50;48.60
7562;DHT22;3822;48.784;9.174;2023-06-04T00:29:26;21.40;48.40
7562;DHT22;3822;48.784;9.174;2023-06-04T00:31:52;21.40;48.40
7562;DHT22;3822;48.784;9.174;2023-06-04T00:34:22;21.40;48.50
7562;DHT22;3822;48.784;9.174;2023-06-04T00:36:48;21.30;48.50
7562;DHT22;3822;48.784;9.174;2023-06-04T00:39:16;21.30;48.40
7562;DHT22;3822;48.784;9.174;2023-06-04T00:41:46;21.30;48.50
7562;DHT22;3822;48.784;9.174;2023-06-04T00:44:14;21.30;48.50
7562;DHT22;3822;48.784;9.174;2023-06-04T00:46:41;21.20;48.50
7562;DHT22;3822;48.784;9.174;2023-06-04T00:49:13;21.20;48.50
7562;DHT22;3822;48.784;9.174;2023-06-04T00:51:40;21.20;48.60
7562;DHT22;3822;48.784;9.174;2023-06-04T00:54:06;21.10;48.50
7562;DHT22;3822;48.784;9.174;2023-06-04T00:56:38;21.10;48.50
7562;DHT22;3822;48.784;9.174;2023-06-04T00:59:10;21.10;48.50
7562;DHT22;3822;48.784;9.174;2023-06-04T01:04:27;21.00;48.60
7562;DHT22;3822;48.784;9.174;2023-06-04T01:07:03;20.90;48.60
7562;DHT22;3822;48.784;9.174;2023-06-04T01:09:30;20.90;48.60
7562;DHT22;3822;48.784;9.174;2023-06-04T01:12:06;20.90;48.60
7562;DHT22;3822;48.784;9.174;2023-06-04T01:14:39;20.80;48.60
7562;DHT22;3822;48.784;9.174;2023-06-04T01:19:57;20.80;48.70
7562;DHT22;3822;48.784;9.174;2023-06-04T01:25:24;20.80;48.80
7562;DHT22;3822;48.784;9.174;2023-06-04T01:27:55;20.70;48.70
7562;DHT22;3822;48.784;9.174;2023-06-04T01:30:31;20.70;48.70
7562;DHT22;3822;48.784;9.174;2023-06-04T01:33:02;20.70;48.70
7562;DHT22;3822;48.784;9.174;2023-06-04T01:35:29;20.70;48.80
7562;DHT22;3822;48.784;9.174;2023-06-04T01:38:05;20.60;48.70
7562;DHT22;3822;48.784;9.174;2023-06-04T01:40:37;20.50;48.70
7562;DHT22;3822;48.784;9.174;2023-06-04T01:43:03;20.50;48.70
7562;DHT22;3822;48.784;9.174;2023-06-04T01:45:35;20.50;48.80
7562;DHT22;3822;48.784;9.174;2023-06-04T01:48:02;20.40;48.70
7562;DHT22;3822;48.784;9.174;2023-06-04T01:50:29;20.40;48.70
7562;DHT22;3822;48.784;9.174;2023-06-04T01:52:59;20.40;48.80
7562;DHT22;3822;48.784;9.174;2023-06-04T01:55:25;20.30;48.70
7562;DHT22;3822;48.784;9.174;2023-06-04T01:57:54;20.30;48.90
7562;DHT22;3822;48.784;9.174;2023-06-04T02:00:23;20.30;48.80
7562;DHT22;3822;48.784;9.174;2023-06-04T02:02:49;20.30;48.90
7562;DHT22;3822;48.784;9.174;2023-06-04T02:05:16;20.20;48.80
7562;DHT22;3822;48.784;9.174;2023-06-04T02:07:47;20.20;48.90
7562;DHT22;3822;48.784;9.174;2023-06-04T02:10:15;20.20;48.90
7562;DHT22;3822;48.784;9.174;2023-06-04T02:15:20;20.10;48.90
7562;DHT22;3822;48.784;9.174;2023-06-04T02:17:47;20.10;48.90
7562;DHT22;3822;48.784;9.174;2023-06-04T02:20:16;20.10;49.00
7562;DHT22;3822;48.784;9.174;2023-06-04T02:22:43;20.00;49.00
7562;DHT22;3822;48.784;9.174;2023-06-04T02:25:12;20.00;49.00
7562;DHT22;3822;48.784;9.174;2023-06-04T02:27:38;20.00;49.00
7562;DHT22;3822;48.784;9.174;2023-06-04T02:30:05;20.00;49.00
7562;DHT22;3822;48.784;9.174;2023-06-04T02:32:32;20.00;49.00
7562;DHT22;3822;48.784;9.174;2023-06-04T02:35:00;19.90;49.00
7562;DHT22;3822;48.784;9.174;2023-06-04T02:37:29;19.90;49.00
7562;DHT22;3822;48.784;9.174;2023-06-04T02:40:07;19.90;49.00
7562;DHT22;3822;48.784;9.174;2023-06-04T02:42:40;19.80;49.00
7562;DHT22;3822;48.784;9.174;2023-06-04T02:45:28;19.80;49.10
7562;DHT22;3822;48.784;9.174;2023-06-04T02:48:13;19.80;49.20
7562;DHT22;3822;48.784;9.174;2023-06-04T02:54:06;19.70;49.20
7562;DHT22;3822;48.784;9.174;2023-06-04T02:56:51;19.70;49.20
7562;DHT22;3822;48.784;9.174;2023-06-04T02:59:55;19.70;49.10
7562;DHT22;3822;48.784;9.174;2023-06-04T03:02:31;19.60;48.90
7562;DHT22;3822;48.784;9.174;2023-06-04T03:08:13;19.60;48.80
7562;DHT22;3822;48.784;9.174;2023-06-04T03:11:17;19.50;48.60
7562;DHT22;3822;48.784;9.174;2023-06-04T03:14:05;19.50;48.60
7562;DHT22;3822;48.784;9.174;2023-06-04T03:16:31;19.40;48.60
7562;DHT22;3822;48.784;9.174;2023-06-04T03:21:52;19.40;48.50
7562;DHT22;3822;48.784;9.174;2023-06-04T03:24:36;19.30;48.50
7562;DHT22;3822;48.784;9.174;2023-06-04T03:30:12;19.20;48.30
7562;DHT22;3822;48.784;9.174;2023-06-04T03:33:14;19.20;48.10
7562;DHT22;3822;48.784;9.174;2023-06-04T03:35:48;19.10;48.00
7562;DHT22;3822;48.784;9.174;2023-06-04T03:38:27;19.10;48.10
7562;DHT22;3822;48.784;9.174;2023-06-04T03:41:27;19.10;48.20
7562;DHT22;3822;48.784;9.174;2023-06-04T03:47:20;19.10;48.20
7562;DHT22;3822;48.784;9.174;2023-06-04T03:49:52;19.10;48.30
7562;DHT22;3822;48.784;9.174;2023-06-04T03:52:36;19.10;48.50
7562;DHT22;3822;48.784;9.174;2023-06-04T03:55:12;19.10;48.60
7562;DHT22;3822;48.784;9.174;2023-06-04T04:01:42;19.00;48.40
7562;DHT22;3822;48.784;9.174;2023-06-04T04:04:17;18.90;48.40
7562;DHT22;3822;48.784;9.174;2023-06-04T04:06:44;18.90;48.60
7562;DHT22;3822;48.784;9.174;2023-06-04T04:15:58;18.90;48.80
7562;DHT22;3822;48.784;9.174;2023-06-04T04:18:27;18.90;48.90
7562;DHT22;3822;48.784;9.174;2023-06-04T04:24:03;18.90;48.90
7562;DHT22;3822;48.784;9.174;2023-06-04T04:26:38;18.90;48.90
7562;DHT22;3822;48.784;9.174;2023-06-04T04:32:35;18.90;49.00
7562;DHT22;3822;48.784;9.174;2023-06-04T04:35:10;18.80;49.10
7562;DHT22;3822;48.784;9.174;2023-06-04T04:37:56;18.80;49.00
7562;DHT22;3822;48.784;9.174;2023-06-04T04:40:38;18.80;49.00
7562;DHT22;3822;48.784;9.174;2023-06-04T04:43:13;18.80;49.20
7562;DHT22;3822;48.784;9.174;2023-06-04T04:46:23;18.70;49.10
7562;DHT22;3822;48.784;9.174;2023-06-04T04:49:04;18.70;49.20
7562;DHT22;3822;48.784;9.174;2023-06-04T04:51:45;18.70;49.40
7562;DHT22;3822;48.784;9.174;2023-06-04T04:54:14;18.70;49.30
7562;DHT22;3822;48.784;9.174;2023-06-04T04:59:51;18.50;49.60
7562;DHT22;3822;48.784;9.174;2023-06-04T05:09:01;18.30;50.20
7562;DHT22;3822;48.784;9.174;2023-06-04T05:11:27;18.30;50.40
7562;DHT22;3822;48.784;9.174;2023-06-04T05:17:19;18.30;50.30
7562;DHT22;3822;48.784;9.174;2023-06-04T05:19:56;18.30;50.20
7562;DHT22;3822;48.784;9.174;2023-06-04T05:26:01;18.40;50.00
7562;DHT22;3822;48.784;9.174;2023-06-04T05:29:15;19.80;51.10
7562;DHT22;3822;48.784;9.174;2023-06-04T05:31:41;18.40;49.60
7562;DHT22;3822;48.784;9.174;2023-06-04T05:34:08;18.40;49.40
7562;DHT22;3822;48.784;9.174;2023-06-04T05:40:03;18.60;49.30
7562;DHT22;3822;48.784;9.174;2023-06-04T05:48:22;18.60;49.00
7562;DHT22;3822;48.784;9.174;2023-06-04T06:00:04;18.70;48.80
7562;DHT22;3822;48.784;9.174;2023-06-04T06:02:45;18.70;48.90
7562;DHT22;3822;48.784;9.174;2023-06-04T06:05:29;18.70;48.80
7562;DHT22;3822;48.784;9.174;2023-06-04T06:07:58;18.70;48.80
7562;DHT22;3822;48.784;9.174;2023-06-04T06:13:56;18.70;48.80
7562;DHT22;3822;48.784;9.174;2023-06-04T06:16:22;18.70;48.80
7562;DHT22;3822;48.784;9.174;2023-06-04T06:28:11;18.80;48.80
7562;DHT22;3822;48.784;9.174;2023-06-04T06:30:43;18.80;48.90
7562;DHT22;3822;48.784;9.174;2023-06-04T06:33:19;18.90;48.50
7562;DHT22;3822;48.784;9.174;2023-06-04T06:39:04;19.00;48.40
7562;DHT22;3822;48.784;9.174;2023-06-04T06:47:06;19.40;47.70
7562;DHT22;3822;48.784;9.174;2023-06-04T06:49:50;19.40;47.40
7562;DHT22;3822;48.784;9.174;2023-06-04T06:52:20;19.40;46.90
7562;DHT22;3822;48.784;9.174;2023-06-04T06:54:52;19.40;46.90
7562;DHT22;3822;48.784;9.174;2023-06-04T06:57:18;19.40;46.80
7562;DHT22;3822;48.784;9.174;2023-06-04T06:59:45;19.40;46.80
7562;DHT22;3822;48.784;9.174;2023-06-04T07:02:17;19.40;46.80
7562;DHT22;3822;48.784;9.174;2023-06-04T07:07:50;19.50;47.00
7562;DHT22;3822;48.784;9.174;2023-06-04T07:13:42;19.60;47.00
7562;DHT22;3822;48.784;9.174;2023-06-04T07:16:38;19.70;47.10
7562;DHT22;3822;48.784;9.174;2023-06-04T07:22:30;19.90;47.20
7562;DHT22;3822;48.784;9.174;2023-06-04T07:25:00;20.00;47.10
7562;DHT22;3822;48.784;9.174;2023-06-04T07:27:26;20.10;47.60
7562;DHT22;3822;48.784;9.174;2023-06-04T07:29:53;20.30;46.80
7562;DHT22;3822;48.784;9.174;2023-06-04T07:32:19;20.40;46.80
7562;DHT22;3822;48.784;9.174;2023-06-04T07:34:47;20.40;46.80
7562;DHT22;3822;48.784;9.174;2023-06-04T07:37:16;20.50;46.90
7562;DHT22;3822;48.784;9.174;2023-06-04T07:39:42;20.50;46.60
7562;DHT22;3822;48.784;9.174;2023-06-04T07:42:09;20.60;46.70
7562;DHT22;3822;48.784;9.174;2023-06-04T07:44:36;20.70;46.60
7562;DHT22;3822;48.784;9.174;2023-06-04T07:47:03;20.60;46.40
7562;DHT22;3822;48.784;9.174;2023-06-04T07:49:32;20.70;46.50
7562;DHT22;3822;48.784;9.174;2023-06-04T07:52:01;20.70;46.30
7562;DHT22;3822;48.784;9.174;2023-06-04T07:54:27;20.80;46.50
7562;DHT22;3822;48.784;9.174;2023-06-04T07:56:53;20.90;46.70
7562;DHT22;3822;48.784;9.174;2023-06-04T07:59:23;20.90;46.70
7562;DHT22;3822;48.784;9.174;2023-06-04T08:01:50;21.00;46.90
7562;DHT22;3822;48.784;9.174;2023-06-04T08:04:17;21.00;46.70
7562;DHT22;3822;48.784;9.174;2023-06-04T08:06:47;21.10;46.80
7562;DHT22;3822;48.784;9.174;2023-06-04T08:09:15;21.10;46.90
7562;DHT22;3822;48.784;9.174;2023-06-04T08:11:42;21.10;47.00
7562;DHT22;3822;48.784;9.174;2023-06-04T08:14:14;21.20;47.00
7562;DHT22;3822;48.784;9.174;2023-06-04T08:16:41;21.20;47.10
7562;DHT22;3822;48.784;9.174;2023-06-04T08:19:07;21.20;47.00
7562;DHT22;3822;48.784;9.174;2023-06-04T08:21:36;21.30;47.00
7562;DHT22;3822;48.784;9.174;2023-06-04T08:24:10;21.40;47.20
7562;DHT22;3822;48.784;9.174;2023-06-04T08:26:39;21.50;47.30
7562;DHT22;3822;48.784;9.174;2023-06-04T08:29:07;21.60;47.20
7562;DHT22;3822;48.784;9.174;2023-06-04T08:31:34;21.60;46.80
7562;DHT22;3822;48.784;9.174;2023-06-04T08:34:00;21.60;46.60
7562;DHT22;3822;48.784;9.174;2023-06-04T08:36:31;21.70;46.60
7562;DHT22;3822;48.784;9.174;2023-06-04T08:39:02;21.80;46.60
7562;DHT22;3822;48.784;9.174;2023-06-04T08:41:28;21.90;46.60
7562;DHT22;3822;48.784;9.174;2023-06-04T08:44:11;21.90;46.60
7562;DHT22;3822;48.784;9.174;2023-06-04T08:46:37;22.00;46.50
7562;DHT22;3822;48.784;9.174;2023-06-04T08:49:08;22.00;46.60
7562;DHT22;3822;48.784;9.174;2023-06-04T08:51:36;22.10;46.70
7562;DHT22;3822;48.784;9.174;2023-06-04T08:54:04;22.10;46.60
7562;DHT22;3822;48.784;9.174;2023-06-04T08:56:31;22.20;46.70
7562;DHT22;3822;48.784;9.174;2023-06-04T08:59:03;22.20;46.50
7562;DHT22;3822;48.784;9.174;2023-06-04T09:01:34;22.20;46.40
7562;DHT22;3822;48.784;9.174;2023-06-04T09:04:06;22.30;46.40
7562;DHT22;3822;48.784;9.174;2023-06-04T09:06:33;22.40;46.50
7562;DHT22;3822;48.784;9.174;2023-06-04T09:09:00;22.40;46.60
7562;DHT22;3822;48.784;9.174;2023-06-04T09:11:33;22.50;46.90
7562;DHT22;3822;48.784;9.174;2023-06-04T09:14:03;22.50;46.90
7562;DHT22;3822;48.784;9.174;2023-06-04T09:16:41;22.60;46.60
7562;DHT22;3822;48.784;9.174;2023-06-04T09:19:11;22.60;46.00
7562;DHT22;3822;48.784;9.174;2023-06-04T09:21:47;22.70;45.90
7562;DHT22;3822;48.784;9.174;2023-06-04T09:24:20;22.70;46.10
7562;DHT22;3822;48.784;9.174;2023-06-04T09:26:48;22.80;46.00
7562;DHT22;3822;48.784;9.174;2023-06-04T09:29:14;22.80;46.00
7562;DHT22;3822;48.784;9.174;2023-06-04T09:31:44;22.90;46.10
7562;DHT22;3822;48.784;9.174;2023-06-04T09:34:12;23.00;45.90
7562;DHT22;3822;48.784;9.174;2023-06-04T09:36:39;22.90;45.00
7562;DHT22;3822;48.784;9.174;2023-06-04T09:39:15;23.10;45.00
7562;DHT22;3822;48.784;9.174;2023-06-04T09:41:42;23.10;44.50
7562;DHT22;3822;48.784;9.174;2023-06-04T09:44:09;23.10;44.30
7562;DHT22;3822;48.784;9.174;2023-06-04T09:46:37;23.20;44.40
7562;DHT22;3822;48.784;9.174;2023-06-04T09:49:04;23.30;44.50
7562;DHT22;3822;48.784;9.174;2023-06-04T09:51:31;23.30;44.70
7562;DHT22;3822;48.784;9.174;2023-06-04T09:53:59;23.40;44.80
7562;DHT22;3822;48.784;9.174;2023-06-04T09:56:28;23.50;44.60
7562;DHT22;3822;48.784;9.174;2023-06-04T09:58:56;23.50;44.70
7562;DHT22;3822;48.784;9.174;2023-06-04T10:01:25;23.60;44.80
7562;DHT22;3822;48.784;9.174;2023-06-04T10:03:52;23.60;44.00
7562;DHT22;3822;48.784;9.174;2023-06-04T10:06:21;23.60;42.90
7562;DHT22;3822;48.784;9.174;2023-06-04T10:08:49;23.70;43.50
7562;DHT22;3822;48.784;9.174;2023-06-04T10:11:26;23.80;43.10
7562;DHT22;3822;48.784;9.174;2023-06-04T10:14:00;23.90;42.90
7562;DHT22;3822;48.784;9.174;2023-06-04T10:16:32;23.90;41.80
7562;DHT22;3822;48.784;9.174;2023-06-04T10:18:59;24.00;42.10
7562;DHT22;3822;48.784;9.174;2023-06-04T10:21:26;24.00;42.10
7562;DHT22;3822;48.784;9.174;2023-06-04T10:23:55;24.10;41.90
7562;DHT22;3822;48.784;9.174;2023-06-04T10:26:21;24.10;42.40
7562;DHT22;3822;48.784;9.174;2023-06-04T10:28:50;24.20;41.60
7562;DHT22;3822;48.784;9.174;2023-06-04T10:31:19;24.20;41.30
7562;DHT22;3822;48.784;9.174;2023-06-04T10:33:45;24.30;41.10
7562;DHT22;3822;48.784;9.174;2023-06-04T10:36:15;24.40;41.40
7562;DHT22;3822;48.784;9.174;2023-06-04T10:38:49;24.40;41.40
7562;DHT22;3822;48.784;9.174;2023-06-04T10:41:17;24.50;40.90
7562;DHT22;3822;48.784;9.174;2023-06-04T10:43:45;24.50;41.00
7562;DHT22;3822;48.784;9.174;2023-06-04T10:46:12;24.60;41.30
7562;DHT22;3822;48.784;9.174;2023-06-04T10:48:46;24.70;40.90
7562;DHT22;3822;48.784;9.174;2023-06-04T10:51:13;24.70;40.80
7562;DHT22;3822;48.784;9.174;2023-06-04T10:53:42;24.80;41.00
7562;DHT22;3822;48.784;9.174;2023-06-04T10:56:10;24.90;41.10
7562;DHT22;3822;48.784;9.174;2023-06-04T10:58:37;24.90;40.80
7562;DHT22;3822;48.784;9.174;2023-06-04T11:01:05;25.00;40.60
7562;DHT22;3822;48.784;9.174;2023-06-04T11:03:38;25.00;40.60
7562;DHT22;3822;48.784;9.174;2023-06-04T11:06:17;25.10;40.80
7562;DHT22;3822;48.784;9.174;2023-06-04T11:08:43;25.10;40.10
7562;DHT22;3822;48.784;9.174;2023-06-04T11:11:15;25.20;40.20
7562;DHT22;3822;48.784;9.174;2023-06-04T11:13:42;25.30;40.20
7562;DHT22;3822;48.784;9.174;2023-06-04T11:16:20;25.30;40.10
7562;DHT22;3822;48.784;9.174;2023-06-04T11:18:56;25.30;39.50
7562;DHT22;3822;48.784;9.174;2023-06-04T11:21:25;25.40;39.70
7562;DHT22;3822;48.784;9.174;2023-06-04T11:23:55;25.40;39.50
7562;DHT22;3822;48.784;9.174;2023-06-04T11:26:29;25.50;39.60
7562;DHT22;3822;48.784;9.174;2023-06-04T11:28:59;25.50;39.00
7562;DHT22;3822;48.784;9.174;2023-06-04T11:31:52;25.60;38.90
7562;DHT22;3822;48.784;9.174;2023-06-04T11:36:49;25.70;38.60
7562;DHT22;3822;48.784;9.174;2023-06-04T11:39:19;25.70;38.10
7562;DHT22;3822;48.784;9.174;2023-06-04T11:41:45;25.80;38.00
7562;DHT22;3822;48.784;9.174;2023-06-04T11:44:12;25.80;37.90
7562;DHT22;3822;48.784;9.174;2023-06-04T11:46:42;25.80;37.90
7562;DHT22;3822;48.784;9.174;2023-06-04T11:49:16;25.90;38.00
7562;DHT22;3822;48.784;9.174;2023-06-04T11:51:50;26.00;37.90
7562;DHT22;3822;48.784;9.174;2023-06-04T11:54:19;26.10;38.00
7562;DHT22;3822;48.784;9.174;2023-06-04T11:56:48;26.20;37.70
7562;DHT22;3822;48.784;9.174;2023-06-04T11:59:16;26.30;37.50
7562;DHT22;3822;48.784;9.174;2023-06-04T12:01:43;26.30;36.80
7562;DHT22;3822;48.784;9.174;2023-06-04T12:04:13;26.40;36.30
7562;DHT22;3822;48.784;9.174;2023-06-04T12:06:53;26.40;36.70
7562;DHT22;3822;48.784;9.174;2023-06-04T12:09:24;26.50;36.70
7562;DHT22;3822;48.784;9.174;2023-06-04T12:12:02;26.60;36.70
7562;DHT22;3822;48.784;9.174;2023-06-04T12:14:32;26.60;36.20
7562;DHT22;3822;48.784;9.174;2023-06-04T12:17:08;26.70;35.60
7562;DHT22;3822;48.784;9.174;2023-06-04T12:19:45;26.70;35.40
7562;DHT22;3822;48.784;9.174;2023-06-04T12:22:16;26.80;35.80
7562;DHT22;3822;48.784;9.174;2023-06-04T12:24:48;26.80;35.90
7562;DHT22;3822;48.784;9.174;2023-06-04T12:27:19;26.90;35.50
7562;DHT22;3822;48.784;9.174;2023-06-04T12:29:59;27.00;35.40
7562;DHT22;3822;48.784;9.174;2023-06-04T12:32:27;27.00;35.20
7562;DHT22;3822;48.784;9.174;2023-06-04T12:34:53;27.20;35.40
7562;DHT22;3822;48.784;9.174;2023-06-04T12:37:20;27.20;34.90
7562;DHT22;3822;48.784;9.174;2023-06-04T12:39:51;27.20;34.60
7562;DHT22;3822;48.784;9.174;2023-06-04T12:42:17;27.20;34.50
7562;DHT22;3822;48.784;9.174;2023-06-04T12:44:45;27.30;34.60
7562;DHT22;3822;48.784;9.174;2023-06-04T12:47:12;27.40;34.50
7562;DHT22;3822;48.784;9.174;2023-06-04T12:49:38;27.50;33.80
7562;DHT22;3822;48.784;9.174;2023-06-04T12:52:04;27.50;34.90
7562;DHT22;3822;48.784;9.174;2023-06-04T12:54:31;27.60;33.00
7562;DHT22;3822;48.784;9.174;2023-06-04T12:57:00;27.70;32.70
7562;DHT22;3822;48.784;9.174;2023-06-04T12:59:27;27.80;32.80
7562;DHT22;3822;48.784;9.174;2023-06-04T13:01:54;27.80;31.90
7562;DHT22;3822;48.784;9.174;2023-06-04T13:04:21;27.80;31.80
7562;DHT22;3822;48.784;9.174;2023-06-04T13:06:49;27.80;30.70
7562;DHT22;3822;48.784;9.174;2023-06-04T13:09:18;27.80;31.70
7562;DHT22;3822;48.784;9.174;2023-06-04T13:11:46;27.90;31.80
7562;DHT22;3822;48.784;9.174;2023-06-04T13:14:12;27.90;32.00
7562;DHT22;3822;48.784;9.174;2023-06-04T13:16:39;28.00;32.20
7562;DHT22;3822;48.784;9.174;2023-06-04T13:19:05;28.00;32.00
7562;DHT22;3822;48.784;9.174;2023-06-04T13:21:32;28.10;31.40
7562;DHT22;3822;48.784;9.174;2023-06-04T13:23:59;28.20;31.40
7562;DHT22;3822;48.784;9.174;2023-06-04T13:26:25;28.30;31.70
7562;DHT22;3822;48.784;9.174;2023-06-04T13:28:52;28.30;31.20
7562;DHT22;3822;48.784;9.174;2023-06-04T13:31:18;28.40;31.60
7562;DHT22;3822;48.784;9.174;2023-06-04T13:33:44;28.50;31.20
7562;DHT22;3822;48.784;9.174;2023-06-04T13:36:10;28.70;31.40
7562;DHT22;3822;48.784;9.174;2023-06-04T13:38:37;28.70;30.50
7562;DHT22;3822;48.784;9.174;2023-06-04T13:41:03;28.80;30.30
7562;DHT22;3822;48.784;9.174;2023-06-04T13:43:31;28.90;30.00
7562;DHT22;3822;48.784;9.174;2023-06-04T13:45:58;28.90;30.30
7562;DHT22;3822;48.784;9.174;2023-06-04T13:48:24;29.00;30.30
7562;DHT22;3822;48.784;9.174;2023-06-04T13:50:50;29.10;30.30
7562;DHT22;3822;48.784;9.174;2023-06-04T13:53:19;29.10;29.80
7562;DHT22;3822;48.784;9.174;2023-06-04T13:55:45;29.10;29.90
7562;DHT22;3822;48.784;9.174;2023-06-04T13:58:11;29.20;29.50
7562;DHT22;3822;48.784;9.174;2023-06-04T14:00:38;29.10;29.50
7562;DHT22;3822;48.784;9.174;2023-06-04T14:03:04;29.20;29.40
7562;DHT22;3822;48.784;9.174;2023-06-04T14:05:33;29.20;29.50
7562;DHT22;3822;48.784;9.174;2023-06-04T14:07:59;29.30;29.10
7562;DHT22;3822;48.784;9.174;2023-06-04T14:10:25;29.40;29.30
7562;DHT22;3822;48.784;9.174;2023-06-04T14:12:52;29.50;28.90
7562;DHT22;3822;48.784;9.174;2023-06-04T14:15:18;29.60;29.30
7562;DHT22;3822;48.784;9.174;2023-06-04T14:17:44;29.60;28.80
7562;DHT22;3822;48.784;9.174;2023-06-04T14:20:11;29.70;28.20
7562;DHT22;3822;48.784;9.174;2023-06-04T14:22:37;29.70;28.60
7562;DHT22;3822;48.784;9.174;2023-06-04T14:25:07;29.80;28.70
7562;DHT22;3822;48.784;9.174;2023-06-04T14:27:34;29.80;28.40
7562;DHT22;3822;48.784;9.174;2023-06-04T14:30:03;29.80;28.60
7562;DHT22;3822;48.784;9.174;2023-06-04T14:32:30;29.90;28.50
7562;DHT22;3822;48.784;9.174;2023-06-04T14:34:57;30.00;28.60
7562;DHT22;3822;48.784;9.174;2023-06-04T14:37:26;30.20;28.00
7562;DHT22;3822;48.784;9.174;2023-06-04T14:39:52;30.30;27.70
7562;DHT22;3822;48.784;9.174;2023-06-04T14:42:19;30.30;27.60
7562;DHT22;3822;48.784;9.174;2023-06-04T14:44:47;30.30;27.10
7562;DHT22;3822;48.784;9.174;2023-06-04T14:47:13;30.30;26.50
7562;DHT22;3822;48.784;9.174;2023-06-04T14:49:42;30.30;26.80
7562;DHT22;3822;48.784;9.174;2023-06-04T14:52:08;30.30;26.50
7562;DHT22;3822;48.784;9.174;2023-06-04T14:54:35;30.30;26.30
7562;DHT22;3822;48.784;9.174;2023-06-04T14:57:04;30.30;26.40
7562;DHT22;3822;48.784;9.174;2023-06-04T14:59:30;30.30;26.40
7562;DHT22;3822;48.784;9.174;2023-06-04T15:01:57;30.30;26.80
7562;DHT22;3822;48.784;9.174;2023-06-04T15:04:23;30.40;27.20
7562;DHT22;3822;48.784;9.174;2023-06-04T15:06:50;30.40;26.80
7562;DHT22;3822;48.784;9.174;2023-06-04T15:09:18;30.50;27.10
7562;DHT22;3822;48.784;9.174;2023-06-04T15:11:45;30.60;27.10
7562;DHT22;3822;48.784;9.174;2023-06-04T15:14:13;30.70;26.30
7562;DHT22;3822;48.784;9.174;2023-06-04T15:16:41;30.80;26.80
7562;DHT22;3822;48.784;9.174;2023-06-04T15:19:08;31.00;26.50
7562;DHT22;3822;48.784;9.174;2023-06-04T15:21:35;31.00;26.10
7562;DHT22;3822;48.784;9.174;2023-06-04T15:24:02;31.00;25.90
7562;DHT22;3822;48.784;9.174;2023-06-04T15:26:28;31.00;25.30
7562;DHT22;3822;48.784;9.174;2023-06-04T15:28:57;31.00;25.70
7562;DHT22;3822;48.784;9.174;2023-06-04T15:31:23;31.10;25.80
7562;DHT22;3822;48.784;9.174;2023-06-04T15:33:49;31.20;25.80
7562;DHT22;3822;48.784;9.174;2023-06-04T15:36:18;31.30;25.80
7562;DHT22;3822;48.784;9.174;2023-06-04T15:38:47;31.30;25.40
7562;DHT22;3822;48.784;9.174;2023-06-04T15:41:14;31.40;25.60
7562;DHT22;3822;48.784;9.174;2023-06-04T15:43:44;31.40;24.90
7562;DHT22;3822;48.784;9.174;2023-06-04T15:46:11;31.40;25.40
7562;DHT22;3822;48.784;9.174;2023-06-04T15:48:39;31.50;25.70
7562;DHT22;3822;48.784;9.174;2023-06-04T15:51:06;31.60;25.70
7562;DHT22;3822;48.784;9.174;2023-06-04T15:53:34;31.70;25.10
7562;DHT22;3822;48.784;9.174;2023-06-04T15:56:01;31.80;24.80
7562;DHT22;3822;48.784;9.174;2023-06-04T15:58:29;31.90;25.10
7562;DHT22;3822;48.784;9.174;2023-06-04T16:00:58;31.90;24.40
7562;DHT22;3822;48.784;9.174;2023-06-04T16:03:24;31.80;24.70
7562;DHT22;3822;48.784;9.174;2023-06-04T16:05:50;31.80;24.60
7562;DHT22;3822;48.784;9.174;2023-06-04T16:08:17;31.70;24.60
7562;DHT22;3822;48.784;9.174;2023-06-04T16:10:43;31.80;25.00
7562;DHT22;3822;48.784;9.174;2023-06-04T16:13:12;31.90;25.00
7562;DHT22;3822;48.784;9.174;2023-06-04T16:15:40;31.90;24.70
7562;DHT22;3822;48.784;9.174;2023-06-04T16:18:07;31.90;24.80
7562;DHT22;3822;48.784;9.174;2023-06-04T16:20:34;32.10;25.10
7562;DHT22;3822;48.784;9.174;2023-06-04T16:23:00;32.20;25.20
7562;DHT22;3822;48.784;9.174;2023-06-04T16:25:26;32.30;25.00
7562;DHT22;3822;48.784;9.174;2023-06-04T16:27:52;32.40;24.40
7562;DHT22;3822;48.784;9.174;2023-06-04T16:30:21;32.40;24.30
7562;DHT22;3822;48.784;9.174;2023-06-04T16:32:47;32.30;24.30
7562;DHT22;3822;48.784;9.174;2023-06-04T16:35:16;32.30;24.60
7562;DHT22;3822;48.784;9.174;2023-06-04T16:37:42;32.40;24.80
7562;DHT22;3822;48.784;9.174;2023-06-04T16:40:09;32.40;24.80
7562;DHT22;3822;48.784;9.174;2023-06-04T16:42:35;32.40;24.00
7562;DHT22;3822;48.784;9.174;2023-06-04T16:45:04;32.40;24.00
7562;DHT22;3822;48.784;9.174;2023-06-04T16:47:33;32.40;24.20
7562;DHT22;3822;48.784;9.174;2023-06-04T16:50:00;32.40;24.40
7562;DHT22;3822;48.784;9.174;2023-06-04T16:52:27;32.40;24.30
7562;DHT22;3822;48.784;9.174;2023-06-04T16:54:53;32.50;24.60
7562;DHT22;3822;48.784;9.174;2023-06-04T16:57:22;32.60;24.50
7562;DHT22;3822;48.784;9.174;2023-06-04T16:59:51;32.60;24.20
7562;DHT22;3822;48.784;9.174;2023-06-04T17:02:17;32.70;24.30
7562;DHT22;3822;48.784;9.174;2023-06-04T17:04:43;32.60;24.90
7562;DHT22;3822;48.784;9.174;2023-06-04T17:07:13;32.50;24.40
7562;DHT22;3822;48.784;9.174;2023-06-04T17:09:39;32.60;24.60
7562;DHT22;3822;48.784;9.174;2023-06-04T17:12:06;32.60;24.80
7562;DHT22;3822;48.784;9.174;2023-06-04T17:14:34;32.60;25.00
7562;DHT22;3822;48.784;9.174;2023-06-04T17:17:03;32.60;24.90
7562;DHT22;3822;48.784;9.174;2023-06-04T17:19:29;32.60;24.90
7562;DHT22;3822;48.784;9.174;2023-06-04T17:22:00;32.60;24.40
7562;DHT22;3822;48.784;9.174;2023-06-04T17:24:28;32.40;24.60
7562;DHT22;3822;48.784;9.174;2023-06-04T17:26:57;32.40;24.90
7562;DHT22;3822;48.784;9.174;2023-06-04T17:29:23;32.40;25.20
7562;DHT22;3822;48.784;9.174;2023-06-04T17:31:49;32.40;25.20
7562;DHT22;3822;48.784;9.174;2023-06-04T17:34:18;32.30;24.70
7562;DHT22;3822;48.784;9.174;2023-06-04T17:36:44;32.20;24.90
7562;DHT22;3822;48.784;9.174;2023-06-04T17:39:10;32.10;24.80
7562;DHT22;3822;48.784;9.174;2023-06-04T17:41:37;32.10;24.80
7562;DHT22;3822;48.784;9.174;2023-06-04T17:44:04;32.10;24.80
7562;DHT22;3822;48.784;9.174;2023-06-04T17:46:30;32.10;25.00
7562;DHT22;3822;48.784;9.174;2023-06-04T17:49:01;32.10;25.10
7562;DHT22;3822;48.784;9.174;2023-06-04T17:51:36;32.10;24.70
7562;DHT22;3822;48.784;9.174;2023-06-04T17:54:02;32.00;24.90
7562;DHT22;3822;48.784;9.174;2023-06-04T17:56:29;32.00;25.00
7562;DHT22;3822;48.784;9.174;2023-06-04T17:58:55;32.00;25.10
7562;DHT22;3822;48.784;9.174;2023-06-04T18:01:25;32.00;25.20
7562;DHT22;3822;48.784;9.174;2023-06-04T18:03:53;32.10;25.20
7562;DHT22;3822;48.784;9.174;2023-06-04T18:06:22;31.90;24.90
7562;DHT22;3822;48.784;9.174;2023-06-04T18:08:49;31.80;25.00
7562;DHT22;3822;48.784;9.174;2023-06-04T18:11:16;31.80;25.00
7562;DHT22;3822;48.784;9.174;2023-06-04T18:13:42;31.70;25.00